Dawn, TX (79025)

11:40 AM CST on December 21, 2014 (GMT -0600)
Hereford Municipal | Change Station
CLOSE
Current Station
Airport
Location: Hereford,
Elevation: 3786 ft
Nearby Weather Stations

Elev 3786 ft 34.86 °N, 102.33 °W | Updated 5 minutes ago

Clear
Clear
55 °F
Feels Like 55 °F
N
9
Wind Variable Wind from West

Today
High -- | Low -- °F
--% Chance of Precip.
Yesterday
High -- | Low -- °F
Precip. -- in
7:52 AM 5:41 PM
Waning Crescent, 0% visible
Pressure 29.81 in
Visibility 10.0 miles
Clouds Clear
Dew Point 30 °F
Humidity 39%
Rainfall 0.00 in
Snow Depth Not available.
UV 3 out of 12
Pollen 6.90 out of 12
Air Quality Not available.
Flu Activity Not available.
METAR KHRX 211735Z AUTO 26008KT 10SM CLR 13/M01 A2981 RMK AO2 T01291009

More Conditions Fewer Conditions

Pressure 29.81 in
Visibility 10.0 miles
Clouds Clear
Dew Point 30 °F
Humidity 39%
Rainfall 0.00 in
Snow Depth Not available.
UV 3 out of 12
Pollen 6.90 out of 12
Air Quality Not available.
Flu Activity Not available.
METAR KHRX 211735Z AUTO 26008KT 10SM CLR 13/M01 A2981 RMK AO2 T01291009

More Conditions Fewer Conditions

10-Day Weather Forecast

Almanac

Astronomy

Dec. 21, 2014 Rise Set
Actual Time
Civil Twilight
Nautical Twilight
Astronomical Twilight
Moon
Length of Visible Light
Length of Day
Tomorrow will be .
, % of the Moon is Illuminated

Today's Extremes

State Highs State Lows

Community

WunderPhotos

Upload Photos

1,779,434 photos uploaded!

WunderBlogs® & News

Nearby

Air Quality

  Air Quality AQ Index Pollutant
Not available.

Snow Depth

Station Depth Elevation

Earthquake Activity

City Distance Mag. Time & Date
Minimum magnitude displayed is 2.5.

Coastal Water Temperatures

Place Temperature

Nearby Weather Stations